createdAt,value
2022-12-09T00:01:14.181Z,1.00
2022-12-09T00:03:41.914Z,1.00
2022-12-09T00:06:25.193Z,1.00
2022-12-09T00:08:52.845Z,1.00
2022-12-09T00:11:20.897Z,1.00
2022-12-09T00:13:58.885Z,1.00
2022-12-09T00:16:26.688Z,1.00
2022-12-09T00:18:53.900Z,1.00
2022-12-09T00:21:25.883Z,1.00
2022-12-09T00:23:54.265Z,1.00
2022-12-09T00:26:23.435Z,1.00
2022-12-09T00:28:51.933Z,1.00
2022-12-09T00:31:25.016Z,1.00
2022-12-09T00:33:54.412Z,1.00
2022-12-09T00:36:22.652Z,1.00
2022-12-09T00:38:50.151Z,1.00
2022-12-09T00:41:18.244Z,1.00
2022-12-09T00:43:45.363Z,1.00
2022-12-09T00:46:13.925Z,1.00
2022-12-09T00:48:42.135Z,1.00
2022-12-09T00:51:12.688Z,1.00
2022-12-09T00:53:40.277Z,1.00
2022-12-09T00:56:07.550Z,1.00
2022-12-09T00:58:34.621Z,1.00
2022-12-09T01:01:05.366Z,1.00
2022-12-09T01:03:32.770Z,1.00
2022-12-09T01:06:00.673Z,1.00
2022-12-09T01:08:27.892Z,1.00
2022-12-09T01:10:55.094Z,1.00
2022-12-09T01:13:22.165Z,1.00
2022-12-09T01:15:49.162Z,1.00
2022-12-09T01:18:16.367Z,1.00
2022-12-09T01:20:43.327Z,1.00
2022-12-09T01:23:10.283Z,1.00
2022-12-09T01:25:39.432Z,1.00
2022-12-09T01:28:06.679Z,1.00
2022-12-09T01:30:33.813Z,1.00
2022-12-09T01:33:01.075Z,1.00
2022-12-09T01:35:28.274Z,1.00
2022-12-09T01:37:55.422Z,1.00
2022-12-09T01:40:22.720Z,1.00
2022-12-09T01:42:51.584Z,1.00
2022-12-09T01:45:22.186Z,1.00
2022-12-09T01:47:57.073Z,1.00
2022-12-09T01:50:27.298Z,1.00
2022-12-09T01:52:54.589Z,1.00
2022-12-09T01:55:21.906Z,1.00
2022-12-09T01:57:49.485Z,1.00
2022-12-09T02:00:16.883Z,1.00
2022-12-09T02:02:46.943Z,1.00
2022-12-09T02:05:14.817Z,1.00
2022-12-09T02:07:42.487Z,12.90
2022-12-09T02:10:14.614Z,12.40
2022-12-09T02:12:50.283Z,23.00
2022-12-09T02:15:30.922Z,32.30
2022-12-09T02:18:02.445Z,45.10
2022-12-09T02:20:59.318Z,56.60
2022-12-09T02:23:39.921Z,68.90
2022-12-09T02:26:16.558Z,87.10
2022-12-09T02:29:14.886Z,98.70
2022-12-09T02:32:20.647Z,99.90
2022-12-09T02:34:58.666Z,99.90
2022-12-09T02:37:36.134Z,99.90
2022-12-09T02:40:16.431Z,99.90
2022-12-09T02:42:46.536Z,99.90
2022-12-09T02:45:15.264Z,99.90
2022-12-09T02:47:49.177Z,99.90
2022-12-09T02:50:21.124Z,99.90
2022-12-09T02:52:51.449Z,99.90
2022-12-09T02:55:20.594Z,1.00
2022-12-09T02:57:52.263Z,1.00
2022-12-09T03:00:19.692Z,1.00
2022-12-09T03:02:51.006Z,1.00
2022-12-09T03:05:34.477Z,1.00
2022-12-09T03:08:13.704Z,1.00
2022-12-09T03:10:50.716Z,1.00
2022-12-09T03:13:29.442Z,1.00
2022-12-09T03:16:16.285Z,1.00
2022-12-09T03:18:49.028Z,1.00
2022-12-09T03:21:21.988Z,1.00
2022-12-09T03:23:52.616Z,1.00
2022-12-09T03:26:20.143Z,1.00
2022-12-09T03:28:50.755Z,1.00
2022-12-09T03:31:20.857Z,1.00
2022-12-09T03:33:52.914Z,1.00
2022-12-09T03:36:23.132Z,99.90
2022-12-09T03:38:53.607Z,99.90
2022-12-09T03:41:33.369Z,99.90
2022-12-09T03:44:14.560Z,99.90
2022-12-09T03:46:41.836Z,99.90
2022-12-09T03:49:09.386Z,99.90
2022-12-09T03:51:48.933Z,99.90
2022-12-09T03:54:29.882Z,99.90
2022-12-09T03:56:58.574Z,99.90
2022-12-09T03:59:29.328Z,99.90
2022-12-09T04:01:57.105Z,99.90
2022-12-09T04:04:24.379Z,99.90
2022-12-09T04:06:53.594Z,99.90
2022-12-09T04:09:21.027Z,99.90
2022-12-09T04:11:48.673Z,99.90
2022-12-09T04:14:16.209Z,99.90
2022-12-09T04:16:45.323Z,99.90
2022-12-09T04:19:12.509Z,99.90
2022-12-09T04:21:39.830Z,99.90
2022-12-09T04:24:07.435Z,99.90
2022-12-09T04:26:35.086Z,99.90
2022-12-09T04:29:02.048Z,99.90
2022-12-09T04:31:29.159Z,99.90
2022-12-09T04:33:56.734Z,99.90
2022-12-09T04:36:23.708Z,99.90
2022-12-09T04:38:51.027Z,99.90
2022-12-09T04:41:18.225Z,99.90
2022-12-09T04:43:45.649Z,99.90
2022-12-09T04:46:15.522Z,99.90
2022-12-09T04:48:43.196Z,99.90
2022-12-09T04:51:11.874Z,99.90
2022-12-09T04:53:39.460Z,99.90
2022-12-09T04:56:11.098Z,99.90
2022-12-09T04:58:39.050Z,99.90
2022-12-09T05:01:10.610Z,99.90
2022-12-09T05:03:38.653Z,99.90
2022-12-09T05:06:07.279Z,99.90
2022-12-09T05:08:35.376Z,99.90
2022-12-09T05:11:03.382Z,99.90
2022-12-09T05:13:31.139Z,99.90
2022-12-09T05:16:12.164Z,99.90
2022-12-09T05:18:43.097Z,99.90
2022-12-09T05:21:15.246Z,99.90
2022-12-09T05:23:43.103Z,99.90
2022-12-09T05:26:15.976Z,99.90
2022-12-09T05:28:43.729Z,99.90
2022-12-09T05:31:15.507Z,99.90
2022-12-09T05:33:43.992Z,99.90
2022-12-09T05:36:13.104Z,99.90
2022-12-09T05:38:41.125Z,99.90
2022-12-09T05:41:09.217Z,99.90
2022-12-09T05:43:37.276Z,99.90
2022-12-09T05:46:06.801Z,99.90
2022-12-09T05:48:34.689Z,99.90
2022-12-09T05:51:24.742Z,99.90
2022-12-09T05:53:52.464Z,99.90
2022-12-09T05:56:21.477Z,99.90
2022-12-09T05:58:48.639Z,99.90
2022-12-09T06:01:16.716Z,99.90
2022-12-09T06:03:46.450Z,99.90
2022-12-09T06:06:17.653Z,99.90
2022-12-09T06:08:46.507Z,99.90
2022-12-09T06:11:16.656Z,99.90
2022-12-09T06:13:44.873Z,99.90
2022-12-09T06:16:14.614Z,99.90
2022-12-09T06:18:41.777Z,99.90
2022-12-09T06:21:11.490Z,99.90
2022-12-09T06:23:43.743Z,99.90
2022-12-09T06:26:26.381Z,99.90
2022-12-09T06:28:55.448Z,99.90
2022-12-09T06:31:23.164Z,98.50
2022-12-09T06:33:55.925Z,97.20
2022-12-09T06:36:24.371Z,97.30
2022-12-09T06:38:51.468Z,96.90
2022-12-09T06:41:18.710Z,95.50
2022-12-09T06:43:46.166Z,94.50
2022-12-09T06:46:23.833Z,93.60
2022-12-09T06:48:51.967Z,96.70
2022-12-09T06:51:19.845Z,99.90
2022-12-09T06:53:48.190Z,99.90
2022-12-09T06:56:19.644Z,99.90
2022-12-09T06:58:47.422Z,99.90
2022-12-09T07:01:17.454Z,99.90
2022-12-09T07:03:47.872Z,99.90
2022-12-09T07:06:31.996Z,99.90
2022-12-09T07:09:02.398Z,99.90
2022-12-09T07:11:30.439Z,99.90
2022-12-09T07:13:58.316Z,99.90
2022-12-09T07:16:25.805Z,99.90
2022-12-09T07:18:53.669Z,99.90
2022-12-09T07:21:24.015Z,99.90
2022-12-09T07:23:51.338Z,99.90
2022-12-09T07:26:19.328Z,99.90
2022-12-09T07:28:48.089Z,99.90
2022-12-09T07:31:24.317Z,99.90
2022-12-09T07:33:53.569Z,99.90
2022-12-09T07:36:22.429Z,99.90
2022-12-09T07:38:55.142Z,99.90
2022-12-09T07:41:22.398Z,99.90
2022-12-09T07:43:49.761Z,99.90
2022-12-09T07:46:20.040Z,99.90
2022-12-09T07:48:48.564Z,99.90
2022-12-09T07:51:16.986Z,99.90
2022-12-09T07:53:44.586Z,99.90
2022-12-09T07:56:14.770Z,99.90
2022-12-09T07:58:43.919Z,96.30
2022-12-09T08:01:17.314Z,94.50
2022-12-09T08:03:45.852Z,97.10
2022-12-09T08:06:18.248Z,99.90
2022-12-09T08:08:46.435Z,99.90
2022-12-09T08:11:19.070Z,99.90
2022-12-09T08:13:47.527Z,99.90
2022-12-09T08:16:16.820Z,99.90
2022-12-09T08:18:49.602Z,99.90
2022-12-09T08:21:26.954Z,99.90
2022-12-09T08:23:56.864Z,99.90
2022-12-09T08:26:27.163Z,1.00
2022-12-09T08:28:54.842Z,1.00
2022-12-09T08:31:24.902Z,1.00
2022-12-09T08:33:53.278Z,1.00
2022-12-09T08:36:25.551Z,1.00
2022-12-09T08:38:53.052Z,1.00
2022-12-09T08:41:36.000Z,1.00
2022-12-09T08:44:14.405Z,44.00
2022-12-09T08:46:44.593Z,99.90
2022-12-09T08:49:13.404Z,99.90
2022-12-09T08:51:41.230Z,99.90
2022-12-09T08:54:08.522Z,99.90
2022-12-09T08:56:36.093Z,99.90
2022-12-09T08:59:11.736Z,99.90
2022-12-09T09:01:39.106Z,99.90
2022-12-09T09:04:09.874Z,99.90
2022-12-09T09:06:39.509Z,99.90
2022-12-09T09:09:09.042Z,99.90
2022-12-09T09:11:36.521Z,99.90
2022-12-09T09:14:06.173Z,99.90
2022-12-09T09:16:34.646Z,99.90
2022-12-09T09:19:06.010Z,34.20
2022-12-09T09:21:35.544Z,20.00
2022-12-09T09:24:03.291Z,13.60
2022-12-09T09:26:30.461Z,20.90
2022-12-09T09:28:58.131Z,38.60
2022-12-09T09:31:26.006Z,76.10
2022-12-09T09:33:53.994Z,99.90
2022-12-09T09:36:25.752Z,99.90
2022-12-09T09:38:55.080Z,94.60
2022-12-09T09:41:53.770Z,99.90
2022-12-09T09:44:44.192Z,99.90
2022-12-09T09:47:38.301Z,99.90
2022-12-09T09:50:30.984Z,99.90
2022-12-09T09:52:59.162Z,99.90
2022-12-09T09:55:44.626Z,99.90
2022-12-09T09:58:42.060Z,99.90
2022-12-09T10:01:18.078Z,99.90
2022-12-09T10:04:18.914Z,99.90
2022-12-09T10:07:07.951Z,99.90
2022-12-09T10:09:47.180Z,99.90
2022-12-09T10:12:29.721Z,48.60
2022-12-09T10:15:09.788Z,1.00
2022-12-09T10:17:47.088Z,1.00
2022-12-09T10:20:24.550Z,1.00
2022-12-09T10:23:07.397Z,1.00
2022-12-09T10:25:41.906Z,1.00
2022-12-09T10:28:23.920Z,1.00
2022-12-09T10:30:52.839Z,1.00
2022-12-09T10:33:30.940Z,1.00
2022-12-09T10:35:59.227Z,1.00
2022-12-09T10:38:28.297Z,1.00
2022-12-09T10:41:42.903Z,1.00
2022-12-09T10:44:21.231Z,1.00
2022-12-09T10:46:49.592Z,1.00
2022-12-09T10:49:21.214Z,1.00
2022-12-09T10:51:54.756Z,1.00
2022-12-09T10:54:40.127Z,1.00
2022-12-09T10:57:16.398Z,99.90
2022-12-09T10:59:56.727Z,99.90
2022-12-09T11:02:24.677Z,99.90
2022-12-09T11:04:52.343Z,99.90
2022-12-09T11:07:27.144Z,99.90
2022-12-09T11:09:57.626Z,99.90
2022-12-09T11:12:30.870Z,99.90
2022-12-09T11:15:12.844Z,99.90
2022-12-09T11:17:56.062Z,99.90
2022-12-09T11:20:33.651Z,99.90
2022-12-09T11:23:03.267Z,99.90
2022-12-09T11:25:36.242Z,99.90
2022-12-09T11:28:15.791Z,99.90
2022-12-09T11:31:29.085Z,99.90
2022-12-09T11:34:01.267Z,99.90
2022-12-09T11:36:37.063Z,99.90
2022-12-09T11:39:38.351Z,99.90
2022-12-09T11:42:19.063Z,99.90
2022-12-09T11:45:21.759Z,99.90
2022-12-09T11:48:23.035Z,99.90
2022-12-09T11:50:42.480Z,99.90
2022-12-09T11:53:12.878Z,99.90
2022-12-09T11:56:12.533Z,99.90
2022-12-09T11:58:42.571Z,99.90
2022-12-09T12:01:41.841Z,99.90
2022-12-09T12:04:12.618Z,99.90
2022-12-09T12:07:08.987Z,98.60
2022-12-09T12:09:47.032Z,95.80
2022-12-09T12:12:36.593Z,95.50
2022-12-09T12:15:14.005Z,94.20
2022-12-09T12:17:50.305Z,94.20
2022-12-09T12:20:17.627Z,93.50
2022-12-09T12:23:07.244Z,94.40
2022-12-09T12:25:40.937Z,92.30
2022-12-09T12:28:07.898Z,91.30
2022-12-09T12:30:57.368Z,90.00
2022-12-09T12:36:45.353Z,78.10
2022-12-09T12:39:33.119Z,69.80
2022-12-09T12:42:23.302Z,75.40
2022-12-09T12:45:26.302Z,78.00
2022-12-09T12:48:04.712Z,90.50
2022-12-09T12:50:38.915Z,95.90
2022-12-09T12:53:41.929Z,99.90
2022-12-09T12:56:15.181Z,99.90
2022-12-09T12:59:03.163Z,99.90
2022-12-09T13:01:45.974Z,99.90
2022-12-09T13:04:34.182Z,99.90
2022-12-09T13:07:12.222Z,99.90
2022-12-09T13:09:55.603Z,99.90
2022-12-09T13:12:54.913Z,99.90
2022-12-09T13:15:32.325Z,99.90
2022-12-09T13:18:37.696Z,99.90
2022-12-09T13:21:06.683Z,99.90
2022-12-09T13:23:41.273Z,99.90
2022-12-09T13:26:44.607Z,99.90
2022-12-09T13:29:26.023Z,99.90
2022-12-09T13:31:58.895Z,99.90
2022-12-09T13:34:40.565Z,99.90
2022-12-09T13:37:48.042Z,99.90
2022-12-09T13:40:21.043Z,99.90
2022-12-09T13:42:59.032Z,99.90
2022-12-09T13:45:31.764Z,99.90
2022-12-09T13:48:16.645Z,99.90
2022-12-09T13:50:57.737Z,99.90
2022-12-09T13:53:33.894Z,99.90
2022-12-09T13:56:06.924Z,99.90
2022-12-09T13:58:55.210Z,99.90
2022-12-09T14:01:33.275Z,99.90
2022-12-09T14:04:24.810Z,99.90
2022-12-09T14:07:26.194Z,99.90
2022-12-09T14:09:57.907Z,99.90
2022-12-09T14:12:34.330Z,99.90
2022-12-09T14:15:06.777Z,99.90
2022-12-09T14:18:01.101Z,99.90
2022-12-09T14:20:39.242Z,99.90
2022-12-09T14:23:11.975Z,99.90
2022-12-09T14:25:38.851Z,99.90
2022-12-09T14:28:21.096Z,99.90
2022-12-09T14:30:56.923Z,99.90
2022-12-09T14:33:37.873Z,99.90
2022-12-09T14:36:14.000Z,99.90
2022-12-09T14:39:25.010Z,99.90
2022-12-09T14:42:00.829Z,99.90
2022-12-09T14:44:50.672Z,99.90
2022-12-09T14:47:28.268Z,99.90
2022-12-09T14:50:03.796Z,99.90
2022-12-09T14:52:32.274Z,99.90
2022-12-09T14:55:15.694Z,99.90
2022-12-09T14:57:50.753Z,99.90
2022-12-09T15:00:37.825Z,99.90
2022-12-09T15:03:32.133Z,99.90
2022-12-09T15:06:01.033Z,99.90
2022-12-09T15:08:34.415Z,99.90
2022-12-09T15:11:08.125Z,99.90
2022-12-09T15:13:37.786Z,99.90
2022-12-09T15:16:15.264Z,99.90
2022-12-09T15:18:44.114Z,1.00
2022-12-09T15:21:26.455Z,1.00
2022-12-09T15:24:20.924Z,1.00
2022-12-09T15:27:02.919Z,1.00
2022-12-09T15:29:31.821Z,1.00
2022-12-09T15:32:40.556Z,1.00
2022-12-09T15:35:26.600Z,1.00
2022-12-09T15:37:59.496Z,1.00
2022-12-09T15:40:29.424Z,1.00
2022-12-09T15:43:03.024Z,99.90
2022-12-09T15:45:37.824Z,99.90
2022-12-09T15:48:19.235Z,99.90
2022-12-09T15:51:06.946Z,99.90
2022-12-09T15:53:40.193Z,99.90
2022-12-09T15:56:22.633Z,99.90
2022-12-09T15:58:52.633Z,99.90
2022-12-09T16:01:29.131Z,99.90
2022-12-09T16:03:57.808Z,99.90
2022-12-09T16:06:31.851Z,99.90
2022-12-09T16:09:00.116Z,99.90
2022-12-09T16:11:38.046Z,99.90
2022-12-09T16:14:06.437Z,99.90
2022-12-09T16:16:44.587Z,99.90
2022-12-09T16:19:36.058Z,1.00
2022-12-09T16:22:31.898Z,1.00
2022-12-09T16:25:15.174Z,1.00
2022-12-09T16:27:50.590Z,1.00
2022-12-09T16:30:23.343Z,1.00
2022-12-09T16:32:58.374Z,1.00
2022-12-09T16:35:39.678Z,1.00
2022-12-09T16:38:14.695Z,1.00
2022-12-09T16:40:44.467Z,1.00
2022-12-09T16:43:17.293Z,1.00
2022-12-09T16:45:49.774Z,1.00
2022-12-09T16:48:18.977Z,1.00
2022-12-09T16:50:49.001Z,1.00
2022-12-09T16:53:21.414Z,1.00
2022-12-09T16:55:55.790Z,1.00
2022-12-09T16:58:23.203Z,1.00
2022-12-09T17:00:50.263Z,1.00
2022-12-09T17:03:44.534Z,1.00
2022-12-09T17:06:16.183Z,1.00
2022-12-09T17:08:43.191Z,1.00
2022-12-09T17:11:10.667Z,1.00
2022-12-09T17:13:37.957Z,1.00
2022-12-09T17:16:06.325Z,1.00
2022-12-09T17:18:33.667Z,1.00
2022-12-09T17:21:12.528Z,1.00
2022-12-09T17:23:40.443Z,99.90
2022-12-09T17:26:10.743Z,99.90
2022-12-09T17:28:38.553Z,99.90
2022-12-09T17:31:17.581Z,99.90
2022-12-09T17:33:44.933Z,99.90
2022-12-09T17:36:13.831Z,99.90
2022-12-09T17:38:41.159Z,99.90
2022-12-09T17:41:11.027Z,99.90
2022-12-09T17:43:37.900Z,99.90
2022-12-09T17:46:06.447Z,99.90
2022-12-09T17:48:34.878Z,99.90
2022-12-09T17:51:17.923Z,99.90
2022-12-09T17:53:45.105Z,99.90
2022-12-09T17:56:14.787Z,99.90
2022-12-09T17:58:42.093Z,99.90
2022-12-09T18:01:17.765Z,99.90
2022-12-09T18:03:56.074Z,99.90
2022-12-09T18:06:25.664Z,99.90
2022-12-09T18:08:53.357Z,99.90
2022-12-09T18:11:21.960Z,99.90
2022-12-09T18:13:49.352Z,99.90
2022-12-09T18:16:16.845Z,99.90
2022-12-09T18:18:44.338Z,99.90
2022-12-09T18:21:15.559Z,99.90
2022-12-09T18:23:43.551Z,99.90
2022-12-09T18:26:13.524Z,99.90
2022-12-09T18:28:41.113Z,99.90
2022-12-09T18:31:19.129Z,99.90
2022-12-09T18:33:46.536Z,99.90
2022-12-09T18:36:18.611Z,99.90
2022-12-09T18:38:45.555Z,99.90
2022-12-09T18:41:14.631Z,99.90
2022-12-09T18:43:43.583Z,99.90
2022-12-09T18:46:25.654Z,99.90
2022-12-09T18:49:20.712Z,99.90
2022-12-09T18:51:49.610Z,99.90
2022-12-09T18:54:23.426Z,99.90
2022-12-09T18:56:51.340Z,99.90
2022-12-09T18:59:19.400Z,99.90
2022-12-09T19:01:47.586Z,99.90
2022-12-09T19:04:17.655Z,99.90
2022-12-09T19:06:47.029Z,99.90
2022-12-09T19:09:17.844Z,99.90
2022-12-09T19:11:46.468Z,99.90
2022-12-09T19:14:14.358Z,99.90
2022-12-09T19:16:41.852Z,99.90
2022-12-09T19:19:11.040Z,99.90
2022-12-09T19:21:38.858Z,99.90
2022-12-09T19:24:06.561Z,99.90
2022-12-09T19:26:34.802Z,99.90
2022-12-09T19:29:04.739Z,99.90
2022-12-09T19:31:44.340Z,99.90
2022-12-09T19:34:18.877Z,99.90
2022-12-09T19:36:47.784Z,99.90
2022-12-09T19:39:16.111Z,99.90
2022-12-09T19:41:44.257Z,99.90
2022-12-09T19:44:30.907Z,99.90
2022-12-09T19:47:03.295Z,99.90
2022-12-09T19:49:30.327Z,99.90
2022-12-09T19:51:58.283Z,99.90
2022-12-09T19:54:28.773Z,99.90
2022-12-09T19:56:56.326Z,99.90
2022-12-09T19:59:23.650Z,99.90
2022-12-09T20:01:50.642Z,99.90
2022-12-09T20:04:47.472Z,99.90
2022-12-09T20:07:08.423Z,99.90
2022-12-09T20:09:36.505Z,99.90
2022-12-09T20:12:03.624Z,99.90
2022-12-09T20:14:30.513Z,99.90
2022-12-09T20:16:57.426Z,99.90
2022-12-09T20:19:24.805Z,99.90
2022-12-09T20:21:51.706Z,99.90
2022-12-09T20:24:18.584Z,99.90
2022-12-09T20:26:45.473Z,99.90
2022-12-09T20:29:12.667Z,99.90
2022-12-09T20:31:40.379Z,99.90
2022-12-09T20:34:11.730Z,99.90
2022-12-09T20:36:41.039Z,99.90
2022-12-09T20:39:17.560Z,99.90
2022-12-09T20:41:45.573Z,99.90
2022-12-09T20:44:13.475Z,99.90
2022-12-09T20:46:42.240Z,99.90
2022-12-09T20:49:10.137Z,99.90
2022-12-09T20:51:39.591Z,99.90
2022-12-09T20:54:08.443Z,99.90
2022-12-09T20:56:35.726Z,99.90
2022-12-09T20:59:03.559Z,99.90
2022-12-09T21:01:33.843Z,99.90
2022-12-09T21:04:01.806Z,99.90
2022-12-09T21:06:32.008Z,99.90
2022-12-09T21:09:08.538Z,99.90
2022-12-09T21:11:35.697Z,99.90
2022-12-09T21:14:04.776Z,99.90
2022-12-09T21:16:33.980Z,99.90
2022-12-09T21:19:03.713Z,99.90
2022-12-09T21:21:32.750Z,99.90
2022-12-09T21:24:00.837Z,99.90
2022-12-09T21:26:28.051Z,99.90
2022-12-09T21:28:55.778Z,99.90
2022-12-09T21:31:28.673Z,99.90
2022-12-09T21:33:58.259Z,99.90
2022-12-09T21:36:27.979Z,99.90
2022-12-09T21:38:55.312Z,99.90
2022-12-09T21:41:26.732Z,99.90
2022-12-09T21:43:55.216Z,99.90
2022-12-09T21:46:30.911Z,99.90
2022-12-09T21:49:03.595Z,99.90
2022-12-09T21:51:31.977Z,99.90
2022-12-09T21:53:58.948Z,99.90
2022-12-09T21:56:30.369Z,99.90
2022-12-09T21:58:59.078Z,99.90
2022-12-09T22:01:29.092Z,99.90
2022-12-09T22:03:56.914Z,99.90
2022-12-09T22:06:23.863Z,1.00
2022-12-09T22:08:51.416Z,1.00
2022-12-09T22:11:30.395Z,1.00
2022-12-09T22:13:59.727Z,1.00
2022-12-09T22:16:30.379Z,1.00
2022-12-09T22:18:59.177Z,1.00
2022-12-09T22:21:29.283Z,1.00
2022-12-09T22:24:02.818Z,14.40
2022-12-09T22:26:30.417Z,99.90
2022-12-09T22:29:00.402Z,99.90
2022-12-09T22:31:30.570Z,1.00
2022-12-09T22:34:01.406Z,28.50
2022-12-09T22:36:28.525Z,99.90
2022-12-09T22:38:55.865Z,1.00
2022-12-09T22:41:25.753Z,99.90
2022-12-09T22:43:54.492Z,99.90
2022-12-09T22:46:25.454Z,1.00
2022-12-09T22:48:53.047Z,1.00
2022-12-09T22:51:26.134Z,1.00
2022-12-09T22:53:54.464Z,1.00
2022-12-09T22:56:22.870Z,87.30
2022-12-09T22:58:49.984Z,99.90
2022-12-09T23:01:20.370Z,99.90
2022-12-09T23:03:47.657Z,1.00
2022-12-09T23:06:15.107Z,99.90
2022-12-09T23:08:43.532Z,1.00
2022-12-09T23:11:19.420Z,8.50
2022-12-09T23:13:46.964Z,99.90
2022-12-09T23:16:16.153Z,1.00
2022-12-09T23:18:43.285Z,1.00
2022-12-09T23:21:19.474Z,99.90
2022-12-09T23:23:46.467Z,1.00
2022-12-09T23:26:18.099Z,83.60
2022-12-09T23:28:47.897Z,99.90
2022-12-09T23:31:18.841Z,99.90
2022-12-09T23:33:47.113Z,99.90
2022-12-09T23:36:18.928Z,99.90
2022-12-09T23:38:48.319Z,99.90
2022-12-09T23:41:20.013Z,99.90
2022-12-09T23:43:48.852Z,99.90
2022-12-09T23:46:18.949Z,99.90
2022-12-09T23:48:47.231Z,99.90
2022-12-09T23:51:29.126Z,99.90
2022-12-09T23:54:01.692Z,99.90
2022-12-09T23:56:31.900Z,99.90
2022-12-09T23:59:04.325Z,99.90
